Time;durP1;ratioP1;P1;durP2;ratioP2;P2;SDS_P1;SDS_P2;PMS_P1;PMS_P2;Temp;Humidity;BMP_temperature;BMP_pressure;BME280_temperature;BME280_humidity;BME280_pressure;Samples;Min_cycle;Max_cycle;Signal;HPM_P1;HPM_P2
2022/12/01 04:10:09;;;;;;;113.72;36.88;;;5.40;99.90;;;;;;6156630;23;20013;-84
2022/12/01 04:12:35;;;;;;;130.00;40.42;;;5.40;99.90;;;;;;6102891;23;20018;-85
2022/12/01 04:15:10;;;;;;;125.43;38.25;;;5.40;99.90;;;;;;6102025;23;20021;-85
2022/12/01 04:17:35;;;;;;;137.02;40.75;;;5.40;99.90;;;;;;6101189;23;20021;-86
2022/12/01 04:20:02;;;;;;;138.93;41.72;;;5.30;99.90;;;;;;6101270;23;20384;-87
2022/12/01 04:22:28;;;;;;;145.65;40.38;;;5.30;99.90;;;;;;6101231;23;20033;-86
2022/12/01 04:24:53;;;;;;;144.07;42.33;;;5.20;99.90;;;;;;6101152;23;20432;-86
2022/12/01 04:27:20;;;;;;;150.05;41.60;;;5.20;99.90;;;;;;6101532;23;20014;-85
2022/12/01 04:29:45;;;;;;;149.45;42.85;;;5.10;99.90;;;;;;6101263;23;20021;-85
2022/12/01 04:32:12;;;;;;;138.48;41.08;;;5.10;99.90;;;;;;6101849;23;20451;-85
2022/12/01 04:34:38;;;;;;;139.63;40.08;;;5.00;99.90;;;;;;6101258;23;20021;-86
2022/12/01 04:37:04;;;;;;;155.50;42.05;;;5.00;99.90;;;;;;6125891;23;20053;-85
2022/12/01 04:39:30;;;;;;;139.63;41.75;;;5.00;99.90;;;;;;6127048;23;20014;-85
2022/12/01 04:41:56;;;;;;;156.02;43.08;;;5.00;99.90;;;;;;6101269;23;20076;-83
2022/12/01 04:44:22;;;;;;;159.70;44.03;;;5.00;99.90;;;;;;6127099;23;20017;-83
2022/12/01 04:46:47;;;;;;;152.98;43.80;;;5.00;99.90;;;;;;6101159;23;20387;-85
2022/12/01 04:49:13;;;;;;;165.23;43.10;;;5.00;99.90;;;;;;6102514;23;20040;-85
2022/12/01 04:51:38;;;;;;;163.68;43.65;;;5.00;99.90;;;;;;6102148;23;20040;-86
2022/12/01 04:54:04;;;;;;;155.63;43.22;;;5.00;99.90;;;;;;6101153;23;20344;-86
2022/12/01 04:56:31;;;;;;;171.15;41.65;;;4.90;99.90;;;;;;6100805;23;20072;-86
2022/12/01 04:58:58;;;;;;;152.05;44.17;;;4.90;99.90;;;;;;6100823;23;20025;-85
2022/12/01 05:01:24;;;;;;;148.50;42.00;;;4.90;99.90;;;;;;6126949;23;20065;-86
2022/12/01 05:03:49;;;;;;;159.25;42.50;;;5.00;99.90;;;;;;6101044;23;20022;-87
2022/12/01 05:06:21;;;;;;;147.20;41.97;;;4.90;99.90;;;;;;6127138;23;20436;-86
2022/12/01 05:08:49;;;;;;;158.98;42.17;;;5.00;99.90;;;;;;6126743;23;20030;-85
2022/12/01 05:11:16;;;;;;;138.75;43.53;;;4.90;99.90;;;;;;6100691;23;20028;-86
2022/12/01 05:13:44;;;;;;;160.20;41.80;;;5.00;99.90;;;;;;6100842;23;20351;-87
2022/12/01 05:16:14;;;;;;;163.27;45.92;;;5.00;99.90;;;;;;6100754;23;20348;-87
2022/12/01 05:18:40;;;;;;;160.10;44.13;;;5.00;99.90;;;;;;6100877;23;20025;-87
2022/12/01 05:21:08;;;;;;;156.85;44.90;;;5.00;99.90;;;;;;6100682;23;20014;-86
2022/12/01 05:23:35;;;;;;;166.68;45.72;;;5.10;99.90;;;;;;6101197;23;20017;-87
2022/12/01 05:26:03;;;;;;;155.48;46.15;;;5.10;99.90;;;;;;6101055;23;20010;-85
2022/12/01 05:28:29;;;;;;;152.70;43.42;;;5.10;99.90;;;;;;6100973;23;20022;-86
2022/12/01 05:30:55;;;;;;;166.15;46.58;;;5.00;99.90;;;;;;6100862;23;20036;-85
2022/12/01 05:33:23;;;;;;;148.60;43.38;;;5.10;99.90;;;;;;6077031;23;20018;-87
2022/12/01 05:35:49;;;;;;;164.32;44.50;;;5.10;99.90;;;;;;6100776;23;20018;-83
2022/12/01 05:38:15;;;;;;;162.48;44.22;;;5.10;99.90;;;;;;6100524;23;20018;-86
2022/12/01 05:40:41;;;;;;;156.00;43.28;;;5.10;99.90;;;;;;6102069;23;20016;-86
2022/12/01 05:43:07;;;;;;;151.40;44.45;;;5.10;99.90;;;;;;6129252;23;20420;-86
2022/12/01 05:45:33;;;;;;;168.02;43.90;;;5.10;99.90;;;;;;6103019;23;20088;-85
2022/12/01 05:48:00;;;;;;;152.55;44.67;;;5.10;99.90;;;;;;6102824;23;20010;-84
2022/12/01 05:50:27;;;;;;;171.52;44.20;;;5.20;99.90;;;;;;6102997;23;20022;-86
2022/12/01 05:52:52;;;;;;;159.48;44.55;;;5.10;99.90;;;;;;6103051;23;20141;-86
2022/12/01 05:55:18;;;;;;;153.40;43.83;;;5.10;99.90;;;;;;6102919;23;20393;-86
2022/12/01 05:57:44;;;;;;;179.80;46.78;;;5.10;99.90;;;;;;6102616;23;20029;-86
2022/12/01 06:00:12;;;;;;;164.35;45.03;;;5.10;99.90;;;;;;6102527;23;20045;-86
2022/12/01 06:02:39;;;;;;;152.65;43.47;;;5.10;99.90;;;;;;6102783;23;20010;-85
2022/12/01 06:05:05;;;;;;;143.63;41.45;;;5.10;99.90;;;;;;6103117;23;20014;-86
2022/12/01 06:07:33;;;;;;;151.07;44.58;;;5.10;99.90;;;;;;6102663;23;20006;-86
2022/12/01 06:09:59;;;;;;;152.38;42.83;;;5.10;99.90;;;;;;6102868;23;20020;-85
2022/12/01 06:12:25;;;;;;;157.25;44.83;;;5.10;99.90;;;;;;6128966;23;20045;-87
2022/12/01 06:14:50;;;;;;;163.93;45.13;;;5.10;99.90;;;;;;6103023;23;20344;-85
2022/12/01 06:17:16;;;;;;;161.07;43.70;;;5.20;99.90;;;;;;6128813;23;20079;-85
2022/12/01 06:19:42;;;;;;;170.45;46.28;;;5.20;99.90;;;;;;6128604;23;20017;-86
2022/12/01 06:22:08;;;;;;;135.88;41.38;;;5.20;99.90;;;;;;6128166;23;20045;-82
2022/12/01 06:24:34;;;;;;;156.98;46.92;;;5.20;99.90;;;;;;6078209;23;20018;-86
2022/12/01 06:27:00;;;;;;;171.00;44.95;;;5.20;99.90;;;;;;6102130;23;20077;-87
2022/12/01 06:29:25;;;;;;;165.63;43.97;;;5.20;99.90;;;;;;6078169;23;20029;-85
2022/12/01 06:31:51;;;;;;;151.20;44.72;;;5.20;99.90;;;;;;6128424;23;20045;-85
2022/12/01 06:34:17;;;;;;;160.35;45.38;;;5.20;99.90;;;;;;6102216;23;20032;-86
2022/12/01 06:36:42;;;;;;;164.95;46.50;;;5.20;99.90;;;;;;6102032;23;20061;-86
2022/12/01 06:39:08;;;;;;;157.73;44.35;;;5.20;99.90;;;;;;6101801;23;20018;-86
2022/12/01 06:41:36;;;;;;;167.55;46.42;;;5.20;99.90;;;;;;6101872;23;20017;-86
2022/12/01 06:44:02;;;;;;;177.80;46.20;;;5.10;99.90;;;;;;6101877;23;20025;-86
2022/12/01 06:46:27;;;;;;;158.93;44.70;;;5.10;99.90;;;;;;6077879;23;20455;-86
2022/12/01 06:48:53;;;;;;;174.05;47.03;;;5.10;99.90;;;;;;6102143;23;20022;-86
2022/12/01 06:51:19;;;;;;;188.50;46.28;;;5.00;99.90;;;;;;6127808;23;20014;-85
2022/12/01 06:53:44;;;;;;;174.75;46.45;;;5.00;99.90;;;;;;6101563;23;20018;-84
2022/12/01 06:56:10;;;;;;;196.60;44.58;;;4.90;99.90;;;;;;6079140;23;20017;-85
2022/12/01 06:58:35;;;;;;;184.05;45.40;;;4.90;99.90;;;;;;6128871;23;20351;-85
2022/12/01 07:01:10;;;;;;;169.52;45.03;;;4.80;99.90;;;;;;6102073;23;20013;-86
2022/12/01 07:03:36;;;;;;;182.57;44.15;;;4.80;99.90;;;;;;6102321;23;20009;-87
2022/12/01 07:06:02;;;;;;;187.55;46.08;;;4.80;99.90;;;;;;6102037;23;20400;-85
2022/12/01 07:08:29;;;;;;;188.90;44.92;;;4.60;99.90;;;;;;6077808;23;20089;-87
2022/12/01 07:11:04;;;;;;;205.88;47.97;;;4.60;99.90;;;;;;6101726;23;20395;-82
2022/12/01 07:13:30;;;;;;;201.27;45.00;;;4.60;99.90;;;;;;6077773;23;20452;-83
2022/12/01 07:15:56;;;;;;;185.70;45.40;;;4.60;99.90;;;;;;6103020;23;20033;-84
2022/12/01 07:18:22;;;;;;;209.70;46.95;;;4.50;99.90;;;;;;6129620;23;20021;-85
2022/12/01 07:20:48;;;;;;;229.18;47.72;;;4.40;99.90;;;;;;6103465;23;20010;-86
2022/12/01 07:23:14;;;;;;;233.05;48.55;;;4.30;99.90;;;;;;6127617;23;20344;-85
2022/12/01 07:25:39;;;;;;;213.38;49.25;;;4.30;99.90;;;;;;6102762;23;20006;-86
2022/12/01 07:28:05;;;;;;;208.10;47.28;;;4.20;99.90;;;;;;6103040;23;20013;-86
2022/12/01 07:30:31;;;;;;;213.75;48.67;;;4.20;99.90;;;;;;6103335;23;20069;-86
2022/12/01 07:33:04;;;;;;;225.13;47.33;;;4.20;99.90;;;;;;6106066;23;20024;-87
2022/12/01 07:35:42;;;;;;;242.00;46.10;;;4.20;99.90;;;;;;6109539;23;20014;-86
2022/12/01 07:38:08;;;;;;;217.77;48.35;;;4.10;99.90;;;;;;6135116;23;20021;-83
2022/12/01 07:40:33;;;;;;;196.88;46.03;;;4.10;99.90;;;;;;6119431;23;20022;-84
2022/12/01 07:42:59;;;;;;;179.40;44.35;;;4.00;99.90;;;;;;6120564;23;20051;-85
2022/12/01 07:45:25;;;;;;;200.95;44.22;;;4.00;99.90;;;;;;6109841;23;20018;-84
2022/12/01 07:47:53;;;;;;;189.95;45.30;;;4.00;99.90;;;;;;6103867;23;20052;-85
2022/12/01 07:50:19;;;;;;;221.50;46.42;;;4.00;99.90;;;;;;6103160;23;20013;-86
2022/12/01 07:52:51;;;;;;;152.52;42.25;;;4.00;99.90;;;;;;6103117;23;20298;-86
2022/12/01 07:55:17;;;;;;;207.95;49.13;;;3.90;99.90;;;;;;6102208;23;20033;-81
2022/12/01 07:57:43;;;;;;;187.93;45.15;;;3.90;99.90;;;;;;6102219;23;20404;-85
2022/12/01 08:00:10;;;;;;;177.65;44.40;;;3.90;99.90;;;;;;6128641;23;20021;-85
2022/12/01 08:02:36;;;;;;;192.68;44.85;;;3.80;99.90;;;;;;6102519;23;20065;-87
2022/12/01 08:05:02;;;;;;;207.35;44.53;;;3.90;99.90;;;;;;6127663;23;20064;-85
2022/12/01 08:07:27;;;;;;;215.18;46.78;;;3.80;99.90;;;;;;6127596;23;20335;-83
2022/12/01 08:09:53;;;;;;;156.32;39.38;;;3.80;99.90;;;;;;6101464;23;20392;-87
2022/12/01 08:12:19;;;;;;;177.70;35.92;;;3.80;99.90;;;;;;6126151;23;20014;-85
2022/12/01 08:14:44;;;;;;;154.88;37.55;;;3.80;99.90;;;;;;6077663;23;20017;-84
2022/12/01 08:17:10;;;;;;;137.85;34.30;;;3.70;99.90;;;;;;6101401;23;20095;-85
2022/12/01 08:19:36;;;;;;;182.43;36.63;;;3.70;99.90;;;;;;6101219;23;20018;-84
2022/12/01 08:22:01;;;;;;;118.55;33.67;;;3.70;99.90;;;;;;6125280;23;20013;-85
2022/12/01 08:24:27;;;;;;;161.10;35.92;;;3.70;99.90;;;;;;6125586;23;20017;-84
2022/12/01 08:26:53;;;;;;;604.03;53.08;;;3.70;99.90;;;;;;6101254;23;20024;-86
2022/12/01 08:29:18;;;;;;;429.98;50.38;;;3.70;99.90;;;;;;6101189;23;20018;-84
2022/12/01 08:31:44;;;;;;;638.65;54.42;;;3.70;99.90;;;;;;6101139;23;20097;-84
2022/12/01 08:34:10;;;;;;;502.27;45.30;;;3.70;99.90;;;;;;6101166;23;20068;-86
2022/12/01 08:36:36;;;;;;;745.05;59.70;;;3.70;99.90;;;;;;6101169;23;20053;-84
2022/12/01 08:39:02;;;;;;;722.13;62.92;;;3.70;99.90;;;;;;6127456;23;20021;-85
2022/12/01 08:41:28;;;;;;;698.08;60.13;;;3.80;99.90;;;;;;6100976;23;20020;-85
2022/12/01 08:43:54;;;;;;;653.30;63.20;;;3.70;99.90;;;;;;6125353;23;20097;-84
2022/12/01 08:46:19;;;;;;;748.55;79.05;;;3.60;99.90;;;;;;6127092;23;20052;-85
2022/12/01 08:48:45;;;;;;;708.63;69.75;;;3.70;99.90;;;;;;6127173;23;20392;-84
2022/12/01 08:51:14;;;;;;;570.60;59.05;;;3.60;99.90;;;;;;6100689;23;20017;-81
2022/12/01 08:53:42;;;;;;;426.40;45.85;;;3.60;99.90;;;;;;6127024;23;20414;-83
2022/12/01 08:56:18;;;;;;;774.28;61.78;;;3.60;99.90;;;;;;6100565;23;20452;-84
2022/12/01 08:58:44;;;;;;;692.47;55.13;;;3.60;99.90;;;;;;6100461;23;20352;-85
2022/12/01 09:01:13;;;;;;;527.55;52.03;;;3.70;99.90;;;;;;6101360;23;20014;-84
2022/12/01 09:03:39;;;;;;;380.77;45.75;;;3.80;99.90;;;;;;6100636;23;20054;-85
2022/12/01 09:06:10;;;;;;;228.88;35.85;;;3.80;99.90;;;;;;6126447;23;20010;-85
2022/12/01 09:08:36;;;;;;;306.70;40.92;;;3.80;99.90;;;;;;6126350;23;20018;-85
2022/12/01 09:11:12;;;;;;;617.03;54.20;;;3.90;99.90;;;;;;6100427;23;20325;-85
2022/12/01 09:13:39;;;;;;;278.75;41.22;;;4.00;99.90;;;;;;6124926;23;20018;-85
2022/12/01 09:16:14;;;;;;;413.98;46.83;;;4.00;99.90;;;;;;6103221;23;20045;-86
2022/12/01 09:18:40;;;;;;;414.33;44.53;;;4.10;99.90;;;;;;6129339;23;20010;-84
2022/12/01 09:21:18;;;;;;;420.65;42.13;;;4.10;99.90;;;;;;6102397;23;20093;-85
2022/12/01 09:23:44;;;;;;;390.05;40.72;;;4.10;99.90;;;;;;6127198;23;20049;-85
2022/12/01 09:26:10;;;;;;;439.98;42.30;;;4.10;99.90;;;;;;6080294;23;20014;-85
2022/12/01 09:28:36;;;;;;;376.80;39.67;;;4.10;99.90;;;;;;6128857;23;20024;-84
2022/12/01 09:31:07;;;;;;;438.20;44.20;;;4.10;99.90;;;;;;6102492;23;20017;-83
2022/12/01 09:33:32;;;;;;;436.17;41.83;;;4.10;99.90;;;;;;6102455;23;20013;-85
2022/12/01 09:35:59;;;;;;;306.92;36.38;;;4.20;99.90;;;;;;6102462;23;20344;-84
2022/12/01 09:38:25;;;;;;;435.85;43.28;;;4.30;99.90;;;;;;6102375;23;20432;-84
2022/12/01 09:40:51;;;;;;;279.23;36.22;;;4.30;99.90;;;;;;6102386;23;20459;-85
2022/12/01 09:43:21;;;;;;;166.35;31.65;;;4.40;99.90;;;;;;6103084;23;20009;-85
2022/12/01 09:45:53;;;;;;;180.48;33.17;;;4.40;99.90;;;;;;6128608;23;20010;-85
2022/12/01 09:48:28;;;;;;;182.35;34.50;;;4.50;99.90;;;;;;6078265;23;20021;-84
2022/12/01 09:50:54;;;;;;;135.80;31.20;;;4.50;99.90;;;;;;6102123;23;20010;-85
2022/12/01 09:53:24;;;;;;;175.20;35.00;;;4.50;99.90;;;;;;6102112;23;20336;-83
2022/12/01 09:55:50;;;;;;;110.35;32.42;;;4.60;99.90;;;;;;6101978;23;20014;-85
2022/12/01 09:59:08;;;;;;;120.88;32.88;;;4.70;99.90;;;;;;6102030;23;20014;-85
2022/12/01 10:02:01;;;;;;;103.63;32.40;;;4.70;99.90;;;;;;5942889;23;20024;-84
2022/12/01 10:05:06;;;;;;;77.80;29.48;;;4.90;99.90;;;;;;5991054;23;20021;-83
2022/12/01 10:07:47;;;;;;;77.03;30.88;;;4.90;99.90;;;;;;5909416;24;20025;-84
2022/12/01 10:10:25;;;;;;;70.82;28.27;;;5.00;99.90;;;;;;6009655;23;20288;-83
2022/12/01 10:12:51;;;;;;;73.22;30.00;;;5.10;99.90;;;;;;6038694;23;20015;-84
2022/12/01 10:15:22;;;;;;;69.43;28.20;;;5.20;99.90;;;;;;5991283;23;20458;-84
2022/12/01 10:17:47;;;;;;;59.90;26.40;;;5.20;99.90;;;;;;6015829;23;20015;-83
2022/12/01 10:20:36;;;;;;;66.05;27.67;;;5.20;99.90;;;;;;6014640;23;20067;-83
2022/12/01 10:23:19;;;;;;;67.15;28.00;;;5.30;99.90;;;;;;6014952;23;20023;-84
2022/12/01 10:25:50;;;;;;;60.70;26.50;;;5.30;99.90;;;;;;6014720;23;20022;-84
2022/12/01 10:28:31;;;;;;;60.95;27.33;;;5.50;99.90;;;;;;6015613;23;20449;-85
2022/12/01 10:31:16;;;;;;;60.08;25.90;;;5.60;99.90;;;;;;6038362;23;20015;-87
2022/12/01 10:33:59;;;;;;;55.83;25.98;;;5.80;99.90;;;;;;6125703;23;20380;-84
2022/12/01 10:36:27;;;;;;;61.97;26.95;;;5.90;99.90;;;;;;6128679;23;20021;-85
2022/12/01 10:38:53;;;;;;;58.05;26.48;;;6.10;99.90;;;;;;6127518;23;20013;-82
2022/12/01 10:41:22;;;;;;;53.28;24.52;;;6.20;99.90;;;;;;6127232;23;20399;-83
2022/12/01 10:43:56;;;;;;;56.38;25.25;;;6.40;99.90;;;;;;6127401;23;20010;-83
2022/12/01 10:46:46;;;;;;;53.10;25.52;;;6.50;99.90;;;;;;6127915;23;20017;-83
2022/12/01 10:49:14;;;;;;;49.33;23.65;;;6.70;99.90;;;;;;6101358;23;20029;-83
2022/12/01 10:51:57;;;;;;;47.00;23.25;;;6.80;99.90;;;;;;6101330;23;20018;-83
2022/12/01 10:54:32;;;;;;;46.33;23.38;;;7.10;99.90;;;;;;6102738;23;20479;-83
2022/12/01 10:56:58;;;;;;;47.45;22.60;;;7.20;99.90;;;;;;6101441;23;20458;-82
2022/12/01 10:59:41;;;;;;;48.20;22.33;;;7.40;99.90;;;;;;6101722;23;20022;-84
2022/12/01 11:02:16;;;;;;;49.92;23.05;;;7.70;99.90;;;;;;6101033;23;20024;-83
2022/12/01 11:05:06;;;;;;;51.40;23.30;;;8.00;99.90;;;;;;6102017;23;20010;-83
2022/12/01 11:07:51;;;;;;;43.58;23.00;;;8.20;99.90;;;;;;6101650;23;20241;-83
2022/12/01 11:10:18;;;;;;;48.63;23.77;;;8.30;99.90;;;;;;6101829;23;20057;-83
2022/12/01 11:12:51;;;;;;;43.38;22.35;;;8.40;99.90;;;;;;6101059;23;20022;-83
2022/12/01 11:15:24;;;;;;;42.20;21.90;;;8.40;99.90;;;;;;6101112;23;20017;-83
2022/12/01 11:18:04;;;;;;;46.38;23.33;;;8.50;99.90;;;;;;6126366;23;20365;-84
2022/12/01 11:20:34;;;;;;;46.60;23.73;;;8.50;99.90;;;;;;6077618;23;20018;-83
2022/12/01 11:23:09;;;;;;;43.95;23.02;;;8.60;99.90;;;;;;6101449;23;20021;-84
2022/12/01 11:25:35;;;;;;;43.70;22.55;;;8.80;99.90;;;;;;6101069;23;20569;-82
2022/12/01 11:28:03;;;;;;;46.30;21.90;;;8.90;99.90;;;;;;6127823;23;20082;-81
2022/12/01 11:30:31;;;;;;;42.65;21.85;;;8.90;99.90;;;;;;6101304;23;20014;-81
2022/12/01 11:32:59;;;;;;;44.33;22.65;;;9.00;99.90;;;;;;6100986;23;20017;-82
2022/12/01 11:35:34;;;;;;;45.28;22.70;;;9.10;99.90;;;;;;6100986;23;20347;-84
2022/12/01 11:38:02;;;;;;;46.17;22.83;;;9.10;99.90;;;;;;6101114;23;20014;-83
2022/12/01 11:40:47;;;;;;;46.60;23.17;;;9.20;99.90;;;;;;6126866;23;20432;-83
2022/12/01 11:43:34;;;;;;;48.35;22.92;;;9.30;99.90;;;;;;6100937;23;20076;-82
2022/12/01 11:46:06;;;;;;;43.90;23.02;;;9.40;99.90;;;;;;6125480;23;20077;-80
2022/12/01 11:48:35;;;;;;;43.97;22.20;;;9.50;99.90;;;;;;6077015;23;20014;-81
2022/12/01 11:51:07;;;;;;;44.47;22.33;;;9.50;99.90;;;;;;6127122;23;20399;-83
2022/12/01 11:53:37;;;;;;;41.92;21.60;;;9.50;99.90;;;;;;6100963;23;20010;-83
2022/12/01 11:56:27;;;;;;;48.63;22.50;;;9.50;99.90;;;;;;6127174;23;20383;-84
2022/12/01 11:59:04;;;;;;;44.53;22.30;;;9.50;99.90;;;;;;6100831;23;20014;-82
2022/12/01 12:01:49;;;;;;;43.13;22.00;;;9.30;99.90;;;;;;6076753;23;20018;-84
2022/12/01 12:04:51;;;;;;;42.10;21.90;;;9.30;99.90;;;;;;6100987;23;20014;-84
2022/12/01 12:07:44;;;;;;;42.97;23.17;;;9.40;99.90;;;;;;6126636;23;20020;-83
2022/12/01 12:10:35;;;;;;;44.05;21.90;;;9.30;99.90;;;;;;6100793;23;20045;-87
2022/12/01 12:13:13;;;;;;;42.80;21.83;;;9.20;99.90;;;;;;6078040;23;20053;-83
2022/12/01 12:16:01;;;;;;;47.90;21.60;;;9.10;99.90;;;;;;6126879;23;20014;-85
2022/12/01 12:18:44;;;;;;;38.93;20.87;;;9.00;99.90;;;;;;6101095;23;20018;-82
2022/12/01 12:21:16;;;;;;;40.15;21.48;;;8.90;99.90;;;;;;6104357;23;20066;-84
2022/12/01 12:23:57;;;;;;;45.97;22.50;;;8.70;99.90;;;;;;6104045;23;20038;-83
2022/12/01 12:26:28;;;;;;;44.33;21.45;;;8.70;99.90;;;;;;6119025;23;20014;-77
2022/12/01 12:28:59;;;;;;;42.13;21.40;;;8.80;99.90;;;;;;6120016;23;20006;-81
2022/12/01 12:31:31;;;;;;;40.53;21.20;;;8.80;99.90;;;;;;6101711;23;20065;-82
2022/12/01 12:34:15;;;;;;;38.03;19.02;;;8.90;99.90;;;;;;6128992;23;20017;-84
2022/12/01 12:37:09;;;;;;;36.47;19.73;;;8.90;99.90;;;;;;6077410;23;20024;-82
2022/12/01 12:40:28;;;;;;;41.88;20.95;;;8.80;99.90;;;;;;6126943;23;20025;-84
2022/12/01 12:43:18;;;;;;;35.88;19.25;;;8.60;99.90;;;;;;5985610;23;20064;-83
2022/12/01 12:46:02;;;;;;;36.55;19.52;;;8.50;99.90;;;;;;6126580;23;20014;-83
2022/12/01 12:48:58;;;;;;;36.40;19.77;;;8.30;99.90;;;;;;6077831;23;20014;-83
2022/12/01 12:51:42;;;;;;;34.53;18.58;;;8.20;99.90;;;;;;6126575;23;20336;-82
2022/12/01 12:54:25;;;;;;;33.58;17.48;;;8.30;99.90;;;;;;6126667;23;20013;-83
2022/12/01 12:56:56;;;;;;;33.08;16.25;;;8.50;99.90;;;;;;6126778;23;20010;-83
2022/12/01 12:59:40;;;;;;;35.13;18.45;;;8.70;99.90;;;;;;6100597;23;20018;-83
2022/12/01 13:02:14;;;;;;;32.72;17.20;;;9.00;99.90;;;;;;6100291;23;20014;-84
2022/12/01 13:05:05;;;;;;;29.17;16.83;;;9.30;99.90;;;;;;6076679;23;20010;-83
2022/12/01 13:07:41;;;;;;;30.50;16.40;;;9.70;99.90;;;;;;6100908;23;20013;-83
2022/12/01 13:10:25;;;;;;;32.60;16.60;;;10.10;99.90;;;;;;6100359;23;20018;-84
2022/12/01 13:13:12;;;;;;;30.52;15.70;;;10.20;99.90;;;;;;6100221;23;20022;-83
2022/12/01 13:15:39;;;;;;;28.08;16.20;;;10.20;99.90;;;;;;6077726;23;20084;-81
2022/12/01 13:18:12;;;;;;;29.83;15.80;;;10.50;99.90;;;;;;6126852;23;20017;-83
2022/12/01 13:20:39;;;;;;;35.35;17.08;;;10.70;99.90;;;;;;6100821;23;20105;-84
2022/12/01 13:23:06;;;;;;;33.05;17.23;;;11.00;99.90;;;;;;6100553;23;20025;-84
2022/12/01 13:25:39;;;;;;;32.63;17.90;;;11.10;99.90;;;;;;6100306;23;20010;-84
2022/12/01 13:28:14;;;;;;;34.42;18.13;;;10.90;99.90;;;;;;6126793;23;20010;-84
2022/12/01 13:30:40;;;;;;;37.37;17.93;;;10.90;99.90;;;;;;6100561;23;20444;-84
2022/12/01 13:33:06;;;;;;;32.75;17.65;;;11.00;99.90;;;;;;6126972;23;20014;-84
2022/12/01 13:35:39;;;;;;;33.05;18.10;;;11.20;99.90;;;;;;6100065;23;20396;-83
2022/12/01 13:38:29;;;;;;;26.65;15.85;;;11.40;99.90;;;;;;6100189;23;20363;-83
2022/12/01 13:41:25;;;;;;;29.90;16.30;;;11.40;99.90;;;;;;6109506;23;20348;-83
2022/12/01 13:43:56;;;;;;;28.55;15.70;;;11.10;99.90;;;;;;6100221;23;20010;-82
2022/12/01 13:46:45;;;;;;;27.60;15.25;;;10.80;99.90;;;;;;6100307;23;20069;-84
2022/12/01 13:49:43;;;;;;;31.02;16.67;;;10.60;99.90;;;;;;6110873;23;20014;-84
2022/12/01 13:52:20;;;;;;;31.85;17.13;;;10.50;99.90;;;;;;6127603;23;20018;-83
2022/12/01 13:55:08;;;;;;;28.42;16.13;;;10.50;99.90;;;;;;6128363;23;20011;-84
2022/12/01 13:57:35;;;;;;;29.15;16.77;;;10.80;99.90;;;;;;6101672;23;20073;-83
2022/12/01 14:00:24;;;;;;;30.58;16.85;;;11.00;99.90;;;;;;6101520;23;20018;-83
2022/12/01 14:03:11;;;;;;;31.13;17.27;;;10.80;99.90;;;;;;6103413;23;20080;-83
2022/12/01 14:05:52;;;;;;;32.88;16.73;;;10.90;99.90;;;;;;6102659;23;20018;-83
2022/12/01 14:08:22;;;;;;;30.67;17.75;;;10.90;99.90;;;;;;6079009;23;20049;-83
2022/12/01 14:10:58;;;;;;;31.00;17.05;;;11.00;99.90;;;;;;6102467;23;20029;-84
2022/12/01 14:13:25;;;;;;;34.13;18.20;;;11.00;99.90;;;;;;6078949;23;20084;-82
2022/12/01 14:15:59;;;;;;;31.23;18.02;;;10.90;99.90;;;;;;6129059;23;20503;-83
2022/12/01 14:18:35;;;;;;;34.80;19.40;;;10.80;99.90;;;;;;6127942;23;20032;-82
2022/12/01 14:21:06;;;;;;;36.72;18.30;;;10.40;99.90;;;;;;6101897;23;20020;-83
2022/12/01 14:23:40;;;;;;;34.50;18.15;;;10.10;99.90;;;;;;6127780;23;20009;-82
2022/12/01 14:26:18;;;;;;;35.58;19.67;;;9.80;99.90;;;;;;6101767;23;20010;-82
2022/12/01 14:28:59;;;;;;;35.97;19.70;;;9.50;99.90;;;;;;6128005;23;20392;-82
2022/12/01 14:31:34;;;;;;;34.03;19.02;;;9.30;99.90;;;;;;6102215;23;20021;-81
2022/12/01 14:34:22;;;;;;;41.13;20.45;;;9.10;99.90;;;;;;6103283;23;20390;-81
2022/12/01 14:37:04;;;;;;;36.20;19.73;;;8.90;99.90;;;;;;6103206;23;20014;-83
2022/12/01 14:39:35;;;;;;;38.97;20.15;;;8.70;99.90;;;;;;6103087;23;20018;-83
2022/12/01 14:42:10;;;;;;;40.28;20.95;;;8.50;99.90;;;;;;6102628;23;20061;-83
2022/12/01 14:44:49;;;;;;;38.63;20.02;;;8.40;99.90;;;;;;6128922;23;20014;-82
2022/12/01 14:47:26;;;;;;;38.70;20.45;;;8.30;99.90;;;;;;6101692;23;20018;-83
2022/12/01 14:50:08;;;;;;;42.80;21.80;;;8.10;99.90;;;;;;6128331;23;20285;-82
2022/12/01 14:52:41;;;;;;;44.78;22.80;;;8.00;99.90;;;;;;6127727;23;20056;-83
2022/12/01 14:55:22;;;;;;;49.30;22.33;;;7.80;99.90;;;;;;6101401;23;20018;-83
2022/12/01 14:57:50;;;;;;;52.13;24.70;;;7.70;99.90;;;;;;6101369;23;20045;-82
2022/12/01 15:00:20;;;;;;;52.22;24.23;;;7.50;99.90;;;;;;6127141;23;20045;-83
2022/12/01 15:03:01;;;;;;;54.65;24.33;;;7.50;99.90;;;;;;6101305;23;20013;-84
2022/12/01 15:05:29;;;;;;;55.22;25.83;;;7.30;99.90;;;;;;6101719;23;20036;-83
2022/12/01 15:07:57;;;;;;;55.75;26.98;;;7.30;99.90;;;;;;6127156;23;20471;-84
2022/12/01 15:10:34;;;;;;;58.05;26.75;;;7.20;99.90;;;;;;6101361;23;20018;-83
2022/12/01 15:13:22;;;;;;;54.25;25.85;;;7.10;99.90;;;;;;6100921;23;20021;-83
2022/12/01 15:16:01;;;;;;;56.20;25.60;;;7.00;99.90;;;;;;6101586;23;20021;-83
2022/12/01 15:18:38;;;;;;;54.17;26.15;;;7.00;99.90;;;;;;6128190;23;20037;-84
2022/12/01 15:21:15;;;;;;;58.88;25.70;;;6.90;99.90;;;;;;6127922;23;20042;-84
2022/12/01 15:23:59;;;;;;;55.60;26.42;;;6.80;99.90;;;;;;6102139;23;20014;-83
2022/12/01 15:26:29;;;;;;;56.30;24.52;;;6.70;99.90;;;;;;6127759;23;20017;-83
2022/12/01 15:29:15;;;;;;;52.40;25.52;;;6.70;99.90;;;;;;6127619;23;20025;-83
2022/12/01 15:31:45;;;;;;;53.35;25.15;;;6.60;99.90;;;;;;6127081;23;20017;-83
2022/12/01 15:34:15;;;;;;;56.72;25.85;;;6.60;99.90;;;;;;6101419;23;20474;-85
2022/12/01 15:36:41;;;;;;;53.97;26.33;;;6.60;99.90;;;;;;6127395;23;20017;-85
2022/12/01 15:39:14;;;;;;;55.83;26.60;;;6.60;99.90;;;;;;6101197;23;20125;-84
2022/12/01 15:41:41;;;;;;;55.35;25.20;;;6.60;99.90;;;;;;6101284;23;20017;-84
2022/12/01 15:44:18;;;;;;;49.75;24.67;;;6.50;99.90;;;;;;6101497;23;20014;-85
2022/12/01 15:46:44;;;;;;;55.35;25.02;;;6.50;99.90;;;;;;6101011;23;20017;-85
2022/12/01 15:49:28;;;;;;;55.08;25.25;;;6.50;99.90;;;;;;6101039;23;20017;-84
2022/12/01 15:52:09;;;;;;;53.45;24.15;;;6.50;99.90;;;;;;6101146;23;20025;-83
2022/12/01 15:54:36;;;;;;;52.00;25.75;;;6.40;99.90;;;;;;6127755;23;20085;-85
2022/12/01 15:57:03;;;;;;;57.90;25.98;;;6.30;99.90;;;;;;6101297;23;20022;-85
2022/12/01 15:59:37;;;;;;;52.40;23.95;;;6.30;99.90;;;;;;6127203;23;20049;-84
2022/12/01 16:02:17;;;;;;;52.17;23.60;;;6.30;99.90;;;;;;6101428;23;20340;-84
2022/12/01 16:04:44;;;;;;;57.55;25.85;;;6.30;99.90;;;;;;6108388;23;20021;-83
2022/12/01 16:07:10;;;;;;;51.22;24.27;;;6.30;99.90;;;;;;6133163;23;20010;-84
2022/12/01 16:09:42;;;;;;;52.22;24.90;;;6.30;99.90;;;;;;6103862;23;20025;-84
2022/12/01 16:12:16;;;;;;;53.22;25.90;;;6.30;99.90;;;;;;6100914;23;20036;-82
2022/12/01 16:14:50;;;;;;;52.17;25.10;;;6.30;99.90;;;;;;6077153;23;20014;-86
2022/12/01 16:17:16;;;;;;;50.97;25.55;;;6.30;99.90;;;;;;6101016;23;20293;-84
2022/12/01 16:19:44;;;;;;;54.63;24.77;;;6.30;99.90;;;;;;6100937;23;20022;-85
2022/12/01 16:22:09;;;;;;;54.75;25.60;;;6.30;99.90;;;;;;6100797;23;20017;-88
2022/12/01 16:24:51;;;;;;;52.08;24.15;;;6.20;99.90;;;;;;6100963;23;20053;-88
2022/12/01 16:27:27;;;;;;;59.47;26.90;;;6.20;99.90;;;;;;6100829;23;20033;-88
2022/12/01 16:30:05;;;;;;;58.33;26.52;;;6.20;99.90;;;;;;6125374;23;20018;-84
2022/12/01 16:32:38;;;;;;;55.45;25.75;;;6.20;99.90;;;;;;6100895;23;20046;-84
2022/12/01 16:35:25;;;;;;;60.45;27.10;;;6.20;99.90;;;;;;6077484;23;20014;-83
2022/12/01 16:37:51;;;;;;;60.00;26.85;;;6.20;99.90;;;;;;6100812;23;20471;-85
2022/12/01 16:40:17;;;;;;;55.60;25.98;;;6.20;99.90;;;;;;6125216;23;20040;-87
2022/12/01 16:42:43;;;;;;;62.35;27.17;;;6.20;99.90;;;;;;6100970;23;20484;-85
2022/12/01 16:45:13;;;;;;;62.42;27.23;;;6.20;99.90;;;;;;6101529;23;20018;-84
2022/12/01 16:47:40;;;;;;;59.75;27.75;;;6.20;99.90;;;;;;6101034;23;20340;-85
2022/12/01 16:50:06;;;;;;;58.28;27.67;;;6.20;99.90;;;;;;6077267;23;20440;-84
2022/12/01 16:52:32;;;;;;;64.05;28.85;;;6.10;99.90;;;;;;6100829;23;20510;-92
2022/12/01 16:54:58;;;;;;;59.67;27.52;;;6.20;99.90;;;;;;6125807;23;20093;-84
2022/12/01 16:57:24;;;;;;;69.03;29.45;;;6.10;99.90;;;;;;6101024;23;20024;-85
2022/12/01 16:59:49;;;;;;;63.42;28.85;;;6.20;99.90;;;;;;6101109;23;20014;-86
2022/12/01 17:02:15;;;;;;;64.85;27.98;;;6.10;99.90;;;;;;6101387;23;20010;-85
2022/12/01 17:04:41;;;;;;;60.50;28.85;;;6.20;99.90;;;;;;6101075;23;20515;-83